createdAt,value
2023-02-14T00:01:12.212Z,7.30
2023-02-14T00:04:15.700Z,7.30
2023-02-14T00:07:18.311Z,7.30
2023-02-14T00:10:20.617Z,7.30
2023-02-14T00:13:22.845Z,7.30
2023-02-14T00:16:25.114Z,7.20
2023-02-14T00:19:28.344Z,7.30
2023-02-14T00:22:30.581Z,7.20
2023-02-14T00:25:34.591Z,7.20
2023-02-14T00:28:36.825Z,7.30
2023-02-14T00:31:39.473Z,7.20
2023-02-14T00:34:41.744Z,7.20
2023-02-14T00:37:48.726Z,7.20
2023-02-14T00:40:50.803Z,7.20
2023-02-14T00:43:53.830Z,7.20
2023-02-14T00:46:55.971Z,7.30
2023-02-14T00:50:03.066Z,7.30
2023-02-14T00:53:05.657Z,7.20
2023-02-14T00:56:08.311Z,7.20
2023-02-14T00:59:12.372Z,7.20
2023-02-14T01:02:17.304Z,7.30
2023-02-14T01:05:19.665Z,7.20
2023-02-14T01:08:22.131Z,7.20
2023-02-14T01:11:25.701Z,7.20
2023-02-14T01:14:28.598Z,7.20
2023-02-14T01:17:30.895Z,7.20
2023-02-14T01:20:33.528Z,7.20
2023-02-14T01:23:35.676Z,7.20
2023-02-14T01:26:37.970Z,7.20
2023-02-14T01:29:40.137Z,7.20
2023-02-14T01:32:42.682Z,7.20
2023-02-14T01:35:46.487Z,7.20
2023-02-14T01:38:56.125Z,7.20
2023-02-14T01:45:36.205Z,7.20
2023-02-14T01:48:38.393Z,7.20
2023-02-14T01:51:53.043Z,7.20
2023-02-14T01:55:09.483Z,7.20
2023-02-14T01:58:24.178Z,7.20
2023-02-14T02:01:26.950Z,7.20
2023-02-14T02:04:34.424Z,7.20
2023-02-14T02:07:36.942Z,7.10
2023-02-14T02:10:39.213Z,7.20
2023-02-14T02:13:41.469Z,7.10
2023-02-14T02:16:46.717Z,7.10
2023-02-14T02:20:27.183Z,7.10
2023-02-14T02:23:50.385Z,7.10
2023-02-14T02:27:04.539Z,7.10
2023-02-14T02:30:40.314Z,7.10
2023-02-14T02:34:07.578Z,7.10
2023-02-14T02:37:28.372Z,7.10
2023-02-14T02:41:03.209Z,7.10
2023-02-14T02:44:39.969Z,7.10
2023-02-14T02:48:10.882Z,7.10
2023-02-14T02:51:39.743Z,7.10
2023-02-14T02:54:54.043Z,7.10
2023-02-14T02:57:57.191Z,7.10
2023-02-14T03:01:02.343Z,7.10
2023-02-14T03:04:30.091Z,7.10
2023-02-14T03:07:35.878Z,7.10
2023-02-14T03:10:42.500Z,7.10
2023-02-14T03:13:58.594Z,7.10
2023-02-14T03:17:19.400Z,7.10
2023-02-14T03:20:30.458Z,7.10
2023-02-14T03:23:43.924Z,7.10
2023-02-14T03:26:54.803Z,7.10
2023-02-14T03:30:36.820Z,7.10
2023-02-14T03:33:57.340Z,7.10
2023-02-14T03:37:03.355Z,7.10
2023-02-14T03:40:15.818Z,7.10
2023-02-14T03:43:31.989Z,7.10
2023-02-14T03:46:55.117Z,7.10
2023-02-14T03:50:06.329Z,7.00
2023-02-14T03:53:13.984Z,7.10
2023-02-14T03:56:26.118Z,7.10
2023-02-14T03:59:29.475Z,7.00
2023-02-14T04:02:54.994Z,7.00
2023-02-14T04:05:57.231Z,7.00
2023-02-14T04:08:59.472Z,7.10
2023-02-14T04:12:01.619Z,7.00
2023-02-14T04:15:04.856Z,7.10
2023-02-14T04:18:25.597Z,7.00
2023-02-14T04:21:27.901Z,7.00
2023-02-14T04:24:30.070Z,7.00
2023-02-14T04:27:32.189Z,7.00
2023-02-14T04:30:34.556Z,7.00
2023-02-14T04:33:37.095Z,7.00
2023-02-14T04:36:39.355Z,7.00
2023-02-14T04:39:41.592Z,7.00
2023-02-14T04:42:45.097Z,7.00
2023-02-14T04:45:47.869Z,7.00
2023-02-14T04:48:50.003Z,7.00
2023-02-14T04:51:52.265Z,7.00
2023-02-14T04:54:54.534Z,7.00
2023-02-14T04:57:56.798Z,7.00
2023-02-14T05:00:59.250Z,7.00
2023-02-14T05:04:01.798Z,7.00
2023-02-14T05:07:04.553Z,7.00
2023-02-14T05:10:07.264Z,7.00
2023-02-14T05:13:09.724Z,7.00
2023-02-14T05:16:11.983Z,7.00
2023-02-14T05:19:17.060Z,7.00
2023-02-14T05:22:19.332Z,7.00
2023-02-14T05:25:21.605Z,7.00
2023-02-14T05:28:23.856Z,7.00
2023-02-14T05:31:26.164Z,7.00
2023-02-14T05:34:28.460Z,7.00
2023-02-14T05:37:30.707Z,7.00
2023-02-14T05:40:33.756Z,7.00
2023-02-14T05:43:35.906Z,7.00
2023-02-14T05:46:38.111Z,7.00
2023-02-14T05:49:40.281Z,7.00
2023-02-14T05:52:42.511Z,6.90
2023-02-14T05:55:44.723Z,6.90
2023-02-14T05:58:47.008Z,6.90
2023-02-14T06:01:49.232Z,6.90
2023-02-14T06:04:51.838Z,6.90
2023-02-14T06:07:54.180Z,6.90
2023-02-14T06:10:56.303Z,6.90
2023-02-14T06:13:58.437Z,6.90
2023-02-14T06:17:00.739Z,6.90
2023-02-14T06:20:03.168Z,6.90
2023-02-14T06:23:05.370Z,6.90
2023-02-14T06:26:07.708Z,6.90
2023-02-14T06:29:09.934Z,6.90
2023-02-14T06:32:12.246Z,6.90
2023-02-14T06:35:15.579Z,6.90
2023-02-14T06:38:17.798Z,6.90
2023-02-14T06:41:20.025Z,6.80
2023-02-14T06:44:22.285Z,6.90
2023-02-14T06:47:24.423Z,6.90
2023-02-14T06:50:26.596Z,6.80
2023-02-14T06:53:29.378Z,6.80
2023-02-14T06:56:31.634Z,6.80
2023-02-14T06:59:33.790Z,6.90
2023-02-14T07:02:36.173Z,6.80
2023-02-14T07:05:38.498Z,6.80
2023-02-14T07:08:40.774Z,6.80
2023-02-14T07:11:43.347Z,6.80
2023-02-14T07:14:45.552Z,6.80
2023-02-14T07:17:47.770Z,6.80
2023-02-14T07:20:51.232Z,6.80
2023-02-14T07:23:53.521Z,6.80
2023-02-14T07:26:55.835Z,6.80
2023-02-14T07:29:58.154Z,6.80
2023-02-14T07:33:00.402Z,6.80
2023-02-14T07:36:08.481Z,6.80
2023-02-14T07:39:11.029Z,6.80
2023-02-14T07:42:13.347Z,6.80
2023-02-14T07:45:21.742Z,6.80
2023-02-14T07:48:25.437Z,6.80
2023-02-14T07:51:27.713Z,6.80
2023-02-14T07:54:30.064Z,6.80
2023-02-14T07:57:32.332Z,6.80
2023-02-14T08:00:34.548Z,6.80
2023-02-14T08:03:36.841Z,6.80
2023-02-14T08:06:39.086Z,6.80
2023-02-14T08:09:41.321Z,6.80
2023-02-14T08:13:01.718Z,6.80
2023-02-14T08:16:11.883Z,6.80
2023-02-14T08:19:14.178Z,6.80
2023-02-14T08:22:18.320Z,6.80
2023-02-14T08:25:20.495Z,6.80
2023-02-14T08:28:23.288Z,6.80
2023-02-14T08:31:35.074Z,6.80
2023-02-14T08:34:38.425Z,6.80
2023-02-14T08:37:40.624Z,6.80
2023-02-14T08:40:43.093Z,6.80
2023-02-14T08:43:45.585Z,6.80
2023-02-14T08:46:47.923Z,6.80
2023-02-14T08:49:50.543Z,6.80
2023-02-14T08:52:52.692Z,6.80
2023-02-14T08:55:54.857Z,6.80
2023-02-14T08:58:57.055Z,6.80
2023-02-14T09:01:59.420Z,6.80
2023-02-14T09:05:01.747Z,6.80
2023-02-14T09:08:04.361Z,6.80
2023-02-14T09:11:22.340Z,6.80
2023-02-14T09:14:24.882Z,6.80
2023-02-14T09:17:27.238Z,6.80
2023-02-14T09:20:29.478Z,6.80
2023-02-14T09:23:31.652Z,6.80
2023-02-14T09:26:36.988Z,6.80
2023-02-14T09:29:39.197Z,6.80
2023-02-14T09:32:41.446Z,6.80
2023-02-14T09:35:43.699Z,6.80
2023-02-14T09:38:46.151Z,6.80
2023-02-14T09:41:51.358Z,6.80
2023-02-14T09:45:11.844Z,6.80
2023-02-14T09:48:31.014Z,6.80
2023-02-14T09:51:33.250Z,6.80
2023-02-14T09:54:36.111Z,6.80
2023-02-14T09:58:10.015Z,6.80
2023-02-14T10:01:36.742Z,6.80
2023-02-14T10:04:58.710Z,6.80
2023-02-14T10:08:29.852Z,6.80
2023-02-14T10:11:32.329Z,6.80
2023-02-14T10:14:40.865Z,6.80
2023-02-14T10:17:49.678Z,6.80
2023-02-14T10:20:59.087Z,6.80
2023-02-14T10:24:34.100Z,6.80
2023-02-14T10:27:42.522Z,6.80
2023-02-14T10:31:04.459Z,6.80
2023-02-14T10:34:12.599Z,6.80
2023-02-14T10:37:41.806Z,6.80
2023-02-14T10:41:25.476Z,6.90
2023-02-14T10:44:59.436Z,6.90
2023-02-14T10:48:36.460Z,6.80
2023-02-14T10:51:50.457Z,6.90
2023-02-14T10:54:59.748Z,6.90
2023-02-14T10:58:04.366Z,6.90
2023-02-14T11:01:18.295Z,6.90
2023-02-14T11:04:24.042Z,6.90
2023-02-14T11:07:26.323Z,6.90
2023-02-14T11:10:34.285Z,6.90
2023-02-14T11:13:38.714Z,6.90
2023-02-14T11:16:40.981Z,6.90
2023-02-14T11:20:02.203Z,6.90
2023-02-14T11:23:19.329Z,6.90
2023-02-14T11:26:30.095Z,6.90
2023-02-14T11:29:38.983Z,6.90
2023-02-14T11:32:41.374Z,6.90
2023-02-14T11:35:51.682Z,6.90
2023-02-14T11:39:13.943Z,6.90
2023-02-14T11:42:38.674Z,6.90
2023-02-14T11:45:43.982Z,6.90
2023-02-14T11:49:07.427Z,6.90
2023-02-14T11:52:15.988Z,7.00
2023-02-14T11:55:36.469Z,7.00
2023-02-14T11:59:03.133Z,6.90
2023-02-14T12:02:14.443Z,7.00
2023-02-14T12:05:43.660Z,7.00
2023-02-14T12:08:47.080Z,7.00
2023-02-14T12:12:00.541Z,7.00
2023-02-14T12:15:24.129Z,7.00
2023-02-14T12:18:49.369Z,7.00
2023-02-14T12:22:01.326Z,7.00
2023-02-14T12:25:15.883Z,7.00
2023-02-14T12:28:41.786Z,7.00
2023-02-14T12:31:46.662Z,7.00
2023-02-14T12:34:49.574Z,7.10
2023-02-14T12:38:03.959Z,7.00
2023-02-14T12:41:38.782Z,7.10
2023-02-14T12:44:52.729Z,7.10
2023-02-14T12:48:33.386Z,7.00
2023-02-14T12:51:41.399Z,7.10
2023-02-14T12:54:50.199Z,7.10
2023-02-14T12:58:50.838Z,7.10
2023-02-14T13:02:18.128Z,7.10
2023-02-14T13:05:47.915Z,7.10
2023-02-14T13:09:18.901Z,7.10
2023-02-14T13:12:48.296Z,7.10
2023-02-14T13:16:11.912Z,7.10
2023-02-14T13:19:20.073Z,7.10
2023-02-14T13:22:25.208Z,7.10
2023-02-14T13:25:37.257Z,7.10
2023-02-14T13:28:41.753Z,7.20
2023-02-14T13:31:44.833Z,7.20
2023-02-14T13:34:48.569Z,7.20
2023-02-14T13:37:55.310Z,7.20
2023-02-14T13:41:00.347Z,7.20
2023-02-14T13:44:05.451Z,7.20
2023-02-14T13:47:16.178Z,7.20
2023-02-14T13:50:21.654Z,7.20
2023-02-14T13:53:40.866Z,7.20
2023-02-14T13:56:43.065Z,7.20
2023-02-14T13:59:45.262Z,7.20
2023-02-14T14:02:52.683Z,7.20
2023-02-14T14:06:03.638Z,7.30
2023-02-14T14:09:10.841Z,7.20
2023-02-14T14:12:28.442Z,7.30
2023-02-14T14:15:30.531Z,7.30
2023-02-14T14:18:42.392Z,7.30
2023-02-14T14:21:59.597Z,7.30
2023-02-14T14:25:09.286Z,7.30
2023-02-14T14:28:23.125Z,7.30
2023-02-14T14:31:25.314Z,7.30
2023-02-14T14:34:28.647Z,7.30
2023-02-14T14:37:54.654Z,7.40
2023-02-14T14:40:57.846Z,7.40
2023-02-14T14:44:00.408Z,7.30
2023-02-14T14:47:03.276Z,7.40
2023-02-14T14:50:10.282Z,7.40
2023-02-14T14:53:23.187Z,7.40
2023-02-14T14:56:48.720Z,7.40
2023-02-14T15:00:04.542Z,7.40
2023-02-14T15:03:12.513Z,7.40
2023-02-14T15:06:20.997Z,7.40
2023-02-14T15:09:33.813Z,7.40
2023-02-14T15:12:54.985Z,7.40
2023-02-14T15:15:57.767Z,7.50
2023-02-14T15:19:07.388Z,7.50
2023-02-14T15:22:19.756Z,7.50
2023-02-14T15:25:38.388Z,7.50
2023-02-14T15:28:40.525Z,7.50
2023-02-14T15:31:42.833Z,7.50
2023-02-14T15:34:45.204Z,7.50
2023-02-14T15:37:47.820Z,7.50
2023-02-14T15:40:50.593Z,7.50
2023-02-14T15:43:55.831Z,7.50
2023-02-14T15:47:02.199Z,7.50
2023-02-14T15:50:09.940Z,7.50
2023-02-14T15:53:27.016Z,7.50
2023-02-14T15:56:36.054Z,7.60
2023-02-14T15:59:42.390Z,7.60
2023-02-14T16:02:48.072Z,7.60
2023-02-14T16:05:51.325Z,7.60
2023-02-14T16:08:57.122Z,7.60
2023-02-14T16:11:59.383Z,7.60
2023-02-14T16:15:21.503Z,7.60
2023-02-14T16:18:38.978Z,7.60
2023-02-14T16:21:55.976Z,7.60
2023-02-14T16:25:01.841Z,7.60
2023-02-14T16:28:04.248Z,7.60
2023-02-14T16:31:11.059Z,7.70
2023-02-14T16:34:16.092Z,7.70
2023-02-14T16:37:24.623Z,7.70
2023-02-14T16:40:27.912Z,7.70
2023-02-14T16:43:30.064Z,7.70
2023-02-14T16:46:35.445Z,7.70
2023-02-14T16:49:37.635Z,7.70
2023-02-14T16:52:41.100Z,7.70
2023-02-14T16:55:43.269Z,7.70
2023-02-14T16:58:45.919Z,7.70
2023-02-14T17:01:49.005Z,7.70
2023-02-14T17:04:51.215Z,7.70
2023-02-14T17:07:53.397Z,7.70
2023-02-14T17:10:57.373Z,7.80
2023-02-14T17:13:59.901Z,7.80
2023-02-14T17:17:02.122Z,7.80
2023-02-14T17:20:08.267Z,7.80
2023-02-14T17:23:10.438Z,7.80
2023-02-14T17:26:12.650Z,7.90
2023-02-14T17:29:14.734Z,7.90
2023-02-14T17:32:17.027Z,8.00
2023-02-14T17:35:19.490Z,8.00
2023-02-14T17:38:22.347Z,8.10
2023-02-14T17:41:26.402Z,8.10
2023-02-14T17:44:32.465Z,8.10
2023-02-14T17:47:34.804Z,8.10
2023-02-14T17:50:36.954Z,8.10
2023-02-14T17:53:41.489Z,8.10
2023-02-14T17:56:43.662Z,8.10
2023-02-14T17:59:47.292Z,8.20
2023-02-14T18:02:56.170Z,8.20
2023-02-14T18:05:59.153Z,8.20
2023-02-14T18:09:05.793Z,8.20
2023-02-14T18:12:09.386Z,8.20
2023-02-14T18:15:14.824Z,8.20
2023-02-14T18:18:17.392Z,8.20
2023-02-14T18:21:21.837Z,8.20
2023-02-14T18:24:24.167Z,8.20
2023-02-14T18:27:26.681Z,8.20
2023-02-14T18:30:28.861Z,8.30
2023-02-14T18:33:31.068Z,8.30
2023-02-14T18:36:36.599Z,8.30
2023-02-14T18:39:38.807Z,8.20
2023-02-14T18:42:40.893Z,8.30
2023-02-14T18:45:43.102Z,8.20
2023-02-14T18:48:45.588Z,8.30
2023-02-14T18:51:49.046Z,8.30
2023-02-14T18:54:51.125Z,8.30
2023-02-14T18:57:53.327Z,8.30
2023-02-14T19:00:56.699Z,8.30
2023-02-14T19:04:00.505Z,8.30
2023-02-14T19:07:04.535Z,8.30
2023-02-14T19:10:07.410Z,8.30
2023-02-14T19:13:09.562Z,8.30
2023-02-14T19:16:14.150Z,8.30
2023-02-14T19:19:16.937Z,8.30
2023-02-14T19:22:19.753Z,8.30
2023-02-14T19:25:21.899Z,8.30
2023-02-14T19:28:24.128Z,8.30
2023-02-14T19:31:27.886Z,8.30
2023-02-14T19:34:32.069Z,8.30
2023-02-14T19:37:34.188Z,8.30
2023-02-14T19:40:36.333Z,8.30
2023-02-14T19:43:39.849Z,8.20
2023-02-14T19:46:43.215Z,8.30
2023-02-14T19:49:45.346Z,8.30
2023-02-14T19:52:50.161Z,8.20
2023-02-14T19:55:52.751Z,8.20
2023-02-14T19:58:58.193Z,8.20
2023-02-14T20:02:00.694Z,8.30
2023-02-14T20:05:04.453Z,8.20
2023-02-14T20:08:07.154Z,8.30
2023-02-14T20:11:24.931Z,8.20
2023-02-14T20:14:30.542Z,8.20
2023-02-14T20:17:33.716Z,8.20
2023-02-14T20:20:55.752Z,8.20
2023-02-14T20:24:01.049Z,8.20
2023-02-14T20:27:03.202Z,8.20
2023-02-14T20:30:07.108Z,8.20
2023-02-14T20:33:09.318Z,8.20
2023-02-14T20:36:12.111Z,8.20
2023-02-14T20:39:14.608Z,8.20
2023-02-14T20:42:17.476Z,8.20
2023-02-14T20:45:20.018Z,8.20
2023-02-14T20:48:22.401Z,8.20
2023-02-14T20:51:25.009Z,8.20
2023-02-14T20:54:28.650Z,8.20
2023-02-14T20:57:31.050Z,8.20
2023-02-14T21:00:34.851Z,8.20
2023-02-14T21:03:38.900Z,8.20
2023-02-14T21:06:41.867Z,8.20
2023-02-14T21:09:45.584Z,8.20
2023-02-14T21:12:49.257Z,8.20
2023-02-14T21:15:52.527Z,8.20
2023-02-14T21:19:00.833Z,8.20
2023-02-14T21:22:03.566Z,8.20
2023-02-14T21:25:07.757Z,8.20
2023-02-14T21:28:10.152Z,8.10
2023-02-14T21:31:14.135Z,8.10
2023-02-14T21:34:17.141Z,8.10
2023-02-14T21:37:19.395Z,8.10
2023-02-14T21:40:23.675Z,8.10
2023-02-14T21:43:25.847Z,8.10
2023-02-14T21:46:33.463Z,8.10
2023-02-14T21:49:54.439Z,8.10
2023-02-14T21:52:56.581Z,8.10
2023-02-14T21:56:11.824Z,8.10
2023-02-14T21:59:14.233Z,8.10
2023-02-14T22:02:16.461Z,8.10
2023-02-14T22:05:19.930Z,8.10
2023-02-14T22:08:22.788Z,8.10
2023-02-14T22:11:28.192Z,8.10
2023-02-14T22:14:30.552Z,8.10
2023-02-14T22:17:33.738Z,8.10
2023-02-14T22:20:36.043Z,8.10
2023-02-14T22:23:38.896Z,8.10
2023-02-14T22:26:41.384Z,8.10
2023-02-14T22:29:43.792Z,8.10
2023-02-14T22:32:46.274Z,8.10
2023-02-14T22:35:48.582Z,8.00
2023-02-14T22:38:51.018Z,8.10
2023-02-14T22:41:53.245Z,8.10
2023-02-14T22:44:55.437Z,8.10
2023-02-14T22:47:57.618Z,8.10
2023-02-14T22:51:08.223Z,8.10
2023-02-14T22:54:13.685Z,8.10
2023-02-14T22:57:15.973Z,8.00
2023-02-14T23:00:18.248Z,8.00
2023-02-14T23:03:20.478Z,8.00
2023-02-14T23:06:24.279Z,8.00
2023-02-14T23:09:26.541Z,8.00
2023-02-14T23:12:46.954Z,8.00
2023-02-14T23:16:11.683Z,8.00
2023-02-14T23:19:34.940Z,8.00
2023-02-14T23:22:39.625Z,8.00
2023-02-14T23:25:44.767Z,8.00
2023-02-14T23:28:46.915Z,8.00
2023-02-14T23:31:49.285Z,8.00
2023-02-14T23:34:51.480Z,8.00
2023-02-14T23:37:54.412Z,8.00
2023-02-14T23:41:15.272Z,8.00
2023-02-14T23:44:19.887Z,7.90
2023-02-14T23:47:22.273Z,8.00
2023-02-14T23:50:24.569Z,8.00
2023-02-14T23:53:27.133Z,8.00
2023-02-14T23:56:29.518Z,8.00
2023-02-14T23:59:31.758Z,7.90
